Time;durP1;ratioP1;P1;durP2;ratioP2;P2;SDS_P1;SDS_P2;PMS_P1;PMS_P2;Temp;Humidity;BMP_temperature;BMP_pressure;BME280_temperature;BME280_humidity;BME280_pressure;Samples;Min_cycle;Max_cycle;Signal;HPM_P1;HPM_P2
2023/01/25 00:01:29;;;;;;;10.60;8.83;;;-3.40;99.90;;;;;;5050796;28;20544;-77
2023/01/25 00:03:56;;;;;;;12.10;8.87;;;-3.30;99.90;;;;;;5050519;28;20491;-78
2023/01/25 00:06:24;;;;;;;12.07;9.30;;;-3.30;99.90;;;;;;5050223;28;20566;-78
2023/01/25 00:08:51;;;;;;;12.50;7.90;;;-3.50;99.90;;;;;;5042762;28;20493;-79
2023/01/25 00:11:19;;;;;;;14.50;9.23;;;-3.70;99.90;;;;;;5043585;28;20557;-78
2023/01/25 00:13:46;;;;;;;13.13;8.90;;;-3.60;99.90;;;;;;5047922;28;20452;-78
2023/01/25 00:16:13;;;;;;;10.20;9.10;;;-3.90;99.90;;;;;;5049568;28;20530;-78
2023/01/25 00:18:40;;;;;;;9.77;8.70;;;-3.80;99.90;;;;;;5048151;28;20958;-78
2023/01/25 00:21:14;;;;;;;12.30;9.23;;;-4.00;99.90;;;;;;5048064;28;21032;-78
2023/01/25 00:23:42;;;;;;;9.83;8.83;;;-3.80;99.90;;;;;;5048705;28;20900;-78
2023/01/25 00:26:09;;;;;;;11.17;7.87;;;-3.60;99.90;;;;;;5048586;28;20566;-78
2023/01/25 00:28:36;;;;;;;9.60;7.30;;;-3.90;99.90;;;;;;5047947;28;20539;-78
2023/01/25 00:31:05;;;;;;;10.37;7.60;;;-4.00;99.90;;;;;;5048791;28;20897;-78
2023/01/25 00:33:44;;;;;;;10.00;7.20;;;-3.80;99.90;;;;;;5048323;28;20476;-78
2023/01/25 00:36:28;;;;;;;11.40;7.90;;;-3.60;99.90;;;;;;5049649;28;20524;-78
2023/01/25 00:38:57;;;;;;;8.80;7.50;;;-3.60;99.90;;;;;;5049537;28;20535;-78
2023/01/25 00:41:25;;;;;;;11.07;8.30;;;-3.70;99.90;;;;;;5050227;28;20554;-78
2023/01/25 00:43:52;;;;;;;10.97;8.43;;;-4.00;99.90;;;;;;5053154;28;20535;-78
2023/01/25 00:46:19;;;;;;;14.02;9.70;;;-4.50;99.90;;;;;;5053330;28;20579;-78
2023/01/25 00:48:46;;;;;;;9.45;8.48;;;-4.30;99.90;;;;;;5052473;28;20280;-78
2023/01/25 00:51:13;;;;;;;9.13;7.57;;;-4.00;99.90;;;;;;5052467;28;20614;-78
2023/01/25 00:53:39;;;;;;;13.77;7.63;;;-4.20;99.90;;;;;;5051908;28;20540;-78
2023/01/25 00:56:08;;;;;;;11.93;7.67;;;-4.30;99.90;;;;;;5052007;28;21014;-78
2023/01/25 00:58:35;;;;;;;10.77;7.43;;;-4.10;99.90;;;;;;5051804;28;20530;-77
2023/01/25 01:01:02;;;;;;;13.73;9.23;;;-3.80;99.90;;;;;;5052455;28;20527;-78
2023/01/25 01:03:28;;;;;;;9.30;8.10;;;-3.70;99.90;;;;;;5052012;28;20477;-78
2023/01/25 01:06:01;;;;;;;8.83;7.50;;;-3.60;99.90;;;;;;5052788;28;20559;-78
2023/01/25 01:08:28;;;;;;;9.53;7.63;;;-3.60;99.90;;;;;;5067228;28;20449;-78
2023/01/25 01:11:00;;;;;;;10.07;6.90;;;-4.00;99.90;;;;;;5055549;28;21007;-78
2023/01/25 01:13:28;;;;;;;9.87;8.43;;;-4.60;99.90;;;;;;5071277;28;20438;-79
2023/01/25 01:15:56;;;;;;;13.10;9.00;;;-5.30;99.90;;;;;;5052913;28;20503;-78
2023/01/25 01:18:23;;;;;;;14.65;10.70;;;-5.10;99.90;;;;;;5050290;28;20532;-78
2023/01/25 01:20:51;;;;;;;15.55;9.90;;;-4.90;99.90;;;;;;5050723;28;20279;-78
2023/01/25 01:23:18;;;;;;;14.17;11.13;;;-4.70;99.90;;;;;;5050952;28;20292;-78
2023/01/25 01:25:45;;;;;;;12.30;9.80;;;-4.40;99.90;;;;;;5052270;28;20531;-78
2023/01/25 01:28:12;;;;;;;10.87;8.90;;;-4.50;99.90;;;;;;5052516;28;20865;-78
2023/01/25 01:30:41;;;;;;;16.30;10.47;;;-4.50;99.90;;;;;;5052147;28;20539;-78
2023/01/25 01:33:08;;;;;;;13.07;10.33;;;-4.20;99.90;;;;;;5051030;28;21106;-78
2023/01/25 01:35:35;;;;;;;13.77;8.97;;;-4.00;99.90;;;;;;5051775;28;20481;-78
2023/01/25 01:38:02;;;;;;;13.33;8.90;;;-4.10;99.90;;;;;;5052365;28;20522;-78
2023/01/25 01:40:29;;;;;;;13.80;9.30;;;-4.10;99.90;;;;;;5051917;28;21147;-78
2023/01/25 01:42:58;;;;;;;13.40;9.03;;;-4.00;99.90;;;;;;5052167;28;20558;-78
2023/01/25 01:45:52;;;;;;;12.47;10.00;;;-3.90;99.90;;;;;;5050532;28;20448;-78
2023/01/25 01:48:28;;;;;;;13.13;10.57;;;-3.90;99.90;;;;;;5050486;28;20527;-78
2023/01/25 01:50:59;;;;;;;14.93;9.57;;;-3.90;99.90;;;;;;5051156;28;20852;-78
2023/01/25 01:53:27;;;;;;;11.13;8.57;;;-4.00;99.90;;;;;;5048654;28;20897;-78
2023/01/25 01:55:59;;;;;;;11.40;8.47;;;-4.00;99.90;;;;;;5050721;28;21005;-78
2023/01/25 01:58:27;;;;;;;13.03;8.00;;;-4.00;99.90;;;;;;5050162;28;20527;-77
2023/01/25 02:00:55;;;;;;;10.80;7.47;;;-3.90;99.90;;;;;;5051466;28;20533;-78
2023/01/25 02:03:23;;;;;;;8.73;7.23;;;-3.60;99.90;;;;;;5051256;28;20536;-78
2023/01/25 02:05:56;;;;;;;10.93;7.67;;;-4.20;99.90;;;;;;5051983;28;20518;-78
2023/01/25 02:08:24;;;;;;;10.67;9.57;;;-5.00;99.90;;;;;;5051519;28;20885;-78
2023/01/25 02:10:51;;;;;;;11.98;8.70;;;-5.00;99.90;;;;;;5050527;28;20534;-78
2023/01/25 02:13:19;;;;;;;12.65;8.50;;;-4.90;99.90;;;;;;5049797;28;20815;-78
2023/01/25 02:15:49;;;;;;;10.97;9.30;;;-4.90;99.90;;;;;;5049876;28;20287;-78
2023/01/25 02:18:18;;;;;;;9.80;8.80;;;-4.50;99.90;;;;;;5050594;28;20461;-78
2023/01/25 02:20:47;;;;;;;15.07;10.05;;;-4.30;99.90;;;;;;5050020;28;20294;-78
2023/01/25 02:23:21;;;;;;;13.38;9.38;;;-4.50;99.90;;;;;;5050240;28;20288;-78
2023/01/25 02:25:50;;;;;;;9.90;7.50;;;-4.60;99.90;;;;;;5051411;28;20294;-78
2023/01/25 02:28:21;;;;;;;12.18;8.52;;;-4.70;99.90;;;;;;5051450;28;20553;-78
2023/01/25 02:30:48;;;;;;;13.07;9.65;;;-4.70;99.90;;;;;;5050324;28;20286;-78
2023/01/25 02:33:15;;;;;;;12.63;9.13;;;-4.60;99.90;;;;;;5049505;28;20234;-78
2023/01/25 02:35:46;;;;;;;12.73;9.00;;;-4.60;99.90;;;;;;5050206;28;20537;-77
2023/01/25 02:38:16;;;;;;;11.33;9.40;;;-4.50;99.90;;;;;;5050821;28;20621;-78
2023/01/25 02:40:46;;;;;;;12.40;9.77;;;-4.40;99.90;;;;;;5050927;28;20438;-78
2023/01/25 02:43:16;;;;;;;16.90;10.30;;;-4.20;99.90;;;;;;5050658;28;20450;-78
2023/01/25 02:45:46;;;;;;;10.70;8.63;;;-4.10;99.90;;;;;;5050419;28;20580;-78
2023/01/25 02:48:13;;;;;;;12.70;7.87;;;-4.00;99.90;;;;;;5051473;28;20476;-78
2023/01/25 02:50:39;;;;;;;11.50;7.80;;;-3.90;99.90;;;;;;5051174;28;20996;-78
2023/01/25 02:53:06;;;;;;;11.03;8.80;;;-3.70;99.90;;;;;;5051000;28;20552;-78
2023/01/25 02:55:33;;;;;;;9.80;7.60;;;-4.00;99.90;;;;;;5049851;28;20530;-78
2023/01/25 02:58:00;;;;;;;9.40;8.40;;;-4.90;99.90;;;;;;5049841;28;20889;-78
2023/01/25 03:00:28;;;;;;;12.47;7.80;;;-5.00;99.90;;;;;;5049407;28;20545;-78
2023/01/25 03:02:55;;;;;;;11.73;8.15;;;-4.80;99.90;;;;;;5049640;28;20554;-79
2023/01/25 03:05:22;;;;;;;8.80;7.38;;;-4.80;99.90;;;;;;5048937;28;20271;-78
2023/01/25 03:07:49;;;;;;;14.17;8.00;;;-4.90;99.90;;;;;;5049469;28;20214;-78
2023/01/25 03:10:16;;;;;;;10.00;7.67;;;-4.60;99.90;;;;;;5049634;28;20529;-78
2023/01/25 03:12:43;;;;;;;9.60;7.63;;;-4.60;99.90;;;;;;5049216;28;20474;-78
2023/01/25 03:15:10;;;;;;;10.10;7.33;;;-4.50;99.90;;;;;;5048912;28;20478;-78
2023/01/25 03:17:38;;;;;;;10.90;8.63;;;-4.50;99.90;;;;;;5048801;28;20532;-78
2023/01/25 03:20:06;;;;;;;8.17;7.20;;;-4.30;99.90;;;;;;5048880;28;20543;-78
2023/01/25 03:22:33;;;;;;;11.30;7.63;;;-4.00;99.90;;;;;;5048521;28;21054;-78
2023/01/25 03:25:00;;;;;;;9.97;7.33;;;-4.00;99.90;;;;;;5049085;28;20534;-78
2023/01/25 03:27:29;;;;;;;9.30;8.27;;;-3.90;99.90;;;;;;5048291;28;20567;-78
2023/01/25 03:29:56;;;;;;;9.23;7.17;;;-4.00;99.90;;;;;;5049625;28;20481;-78
2023/01/25 03:32:23;;;;;;;10.13;7.57;;;-4.20;99.90;;;;;;5049262;28;20548;-78
2023/01/25 03:34:51;;;;;;;9.40;7.90;;;-5.20;99.90;;;;;;5049179;28;20467;-78
2023/01/25 03:37:18;;;;;;;10.82;8.77;;;-5.40;99.90;;;;;;5048752;28;21006;-77
2023/01/25 03:39:45;;;;;;;20.75;8.23;;;-5.30;99.90;;;;;;5048925;28;20233;-79
2023/01/25 03:42:12;;;;;;;13.13;9.30;;;-5.00;99.90;;;;;;5050629;28;20795;-78
2023/01/25 03:44:39;;;;;;;12.15;8.07;;;-4.50;99.90;;;;;;5050276;28;20227;-78
2023/01/25 03:47:06;;;;;;;11.10;9.33;;;-4.20;99.90;;;;;;5049667;28;20302;-78
2023/01/25 03:49:33;;;;;;;13.20;8.20;;;-4.10;99.90;;;;;;5049195;28;20539;-78
2023/01/25 03:52:01;;;;;;;11.40;8.30;;;-4.20;99.90;;;;;;5049034;28;20466;-78
2023/01/25 03:54:28;;;;;;;12.95;8.20;;;-4.10;99.90;;;;;;5048102;28;20539;-78
2023/01/25 03:56:55;;;;;;;10.73;8.67;;;-4.10;99.90;;;;;;5049393;28;20813;-78
2023/01/25 03:59:22;;;;;;;13.23;9.20;;;-4.40;99.90;;;;;;5048955;28;20526;-78
2023/01/25 04:01:49;;;;;;;13.50;9.57;;;-4.60;99.90;;;;;;5048426;28;20556;-78
2023/01/25 04:04:15;;;;;;;11.83;9.93;;;-4.50;99.90;;;;;;5048590;28;20899;-77
2023/01/25 04:06:42;;;;;;;16.77;10.93;;;-4.30;99.90;;;;;;5050063;28;20520;-78
2023/01/25 04:09:13;;;;;;;11.93;8.90;;;-4.10;99.90;;;;;;5049923;28;20539;-78
2023/01/25 04:11:40;;;;;;;18.93;11.47;;;-3.90;99.90;;;;;;5050017;28;20537;-78
2023/01/25 04:14:07;;;;;;;13.00;10.33;;;-3.90;99.90;;;;;;5049086;28;20524;-78
2023/01/25 04:16:34;;;;;;;12.47;9.47;;;-3.90;99.90;;;;;;5051326;28;20949;-78
2023/01/25 04:19:01;;;;;;;18.83;10.03;;;-3.70;99.90;;;;;;5053622;28;20541;-78
2023/01/25 04:21:28;;;;;;;14.27;10.37;;;-3.80;99.90;;;;;;5053614;28;20549;-78
2023/01/25 04:23:55;;;;;;;12.07;9.53;;;-4.20;99.90;;;;;;5053634;28;20536;-78
2023/01/25 04:26:24;;;;;;;13.00;10.10;;;-4.40;99.90;;;;;;5052553;28;20539;-78
2023/01/25 04:28:51;;;;;;;12.93;9.60;;;-4.30;99.90;;;;;;5052630;28;20566;-79
2023/01/25 04:31:18;;;;;;;12.70;9.90;;;-4.10;99.90;;;;;;5051710;28;20547;-78
2023/01/25 04:33:45;;;;;;;11.17;9.30;;;-3.90;99.90;;;;;;5052906;28;21011;-78
2023/01/25 04:36:11;;;;;;;15.57;8.83;;;-3.70;99.90;;;;;;5052792;28;21035;-78
2023/01/25 04:38:38;;;;;;;13.27;9.70;;;-3.60;99.90;;;;;;5052263;28;20520;-78
2023/01/25 04:41:06;;;;;;;15.33;9.40;;;-3.50;99.90;;;;;;5053613;28;20501;-79
2023/01/25 04:43:34;;;;;;;10.93;9.50;;;-3.50;99.90;;;;;;5053407;28;20446;-78
2023/01/25 04:46:01;;;;;;;13.37;8.67;;;-3.70;99.90;;;;;;5053869;28;20519;-78
2023/01/25 04:48:28;;;;;;;12.60;9.20;;;-3.80;99.90;;;;;;5052774;28;20485;-78
2023/01/25 04:50:55;;;;;;;11.33;9.27;;;-3.70;99.90;;;;;;5053983;28;20446;-78
2023/01/25 04:53:22;;;;;;;13.30;9.70;;;-3.50;99.90;;;;;;5053697;28;20877;-78
2023/01/25 04:55:49;;;;;;;12.50;9.30;;;-3.40;99.90;;;;;;5054297;28;20882;-78
2023/01/25 04:58:16;;;;;;;12.60;9.70;;;-3.60;99.90;;;;;;5053580;28;20726;-78
2023/01/25 05:00:44;;;;;;;15.47;9.57;;;-3.80;99.90;;;;;;5053819;28;20484;-78
2023/01/25 05:03:11;;;;;;;10.00;8.90;;;-3.60;99.90;;;;;;5053489;28;20512;-78
2023/01/25 05:05:38;;;;;;;11.07;9.10;;;-4.00;99.90;;;;;;5053991;28;20529;-78
2023/01/25 05:08:05;;;;;;;12.50;9.30;;;-4.00;99.90;;;;;;5053133;28;20893;-78
2023/01/25 05:10:32;;;;;;;12.60;10.53;;;-4.20;99.90;;;;;;5052000;28;20489;-78
2023/01/25 05:13:01;;;;;;;10.53;9.43;;;-4.10;99.90;;;;;;5051655;28;20559;-78
2023/01/25 05:15:28;;;;;;;13.57;9.10;;;-3.90;99.90;;;;;;5051684;28;20877;-77
2023/01/25 05:17:56;;;;;;;11.03;8.53;;;-3.60;99.90;;;;;;5053374;28;20527;-78
2023/01/25 05:20:23;;;;;;;11.23;8.67;;;-3.50;99.90;;;;;;5032905;28;20932;-78
2023/01/25 05:22:50;;;;;;;11.23;9.57;;;-3.50;99.90;;;;;;5057205;28;20497;-77
2023/01/25 05:28:04;;;;;;;13.37;9.40;;;-3.30;99.90;;;;;;5050468;28;20487;-78
2023/01/25 05:30:31;;;;;;;12.90;9.00;;;-3.30;99.90;;;;;;5051421;28;20537;-78
2023/01/25 05:32:59;;;;;;;9.50;8.50;;;-3.00;99.90;;;;;;5051359;28;20551;-78
2023/01/25 05:35:26;;;;;;;12.27;9.07;;;-2.90;99.90;;;;;;5049646;28;20539;-78
2023/01/25 05:37:56;;;;;;;12.00;9.30;;;-2.90;99.90;;;;;;5050457;28;21027;-78
2023/01/25 05:40:23;;;;;;;12.47;9.03;;;-3.00;99.90;;;;;;5050292;28;21061;-78
2023/01/25 05:42:54;;;;;;;14.53;10.50;;;-3.00;99.90;;;;;;5050663;28;21044;-77
2023/01/25 05:45:21;;;;;;;11.60;8.67;;;-3.00;99.90;;;;;;5045361;28;20442;-78
2023/01/25 05:47:52;;;;;;;11.47;8.47;;;-3.10;99.90;;;;;;5050677;28;20568;-78
2023/01/25 05:50:20;;;;;;;10.90;8.57;;;-3.10;99.90;;;;;;5049847;28;20529;-78
2023/01/25 05:52:47;;;;;;;12.50;9.63;;;-3.30;99.90;;;;;;5051186;28;20574;-78
2023/01/25 05:55:14;;;;;;;14.00;10.10;;;-3.10;99.90;;;;;;5048561;28;20525;-77
2023/01/25 05:57:41;;;;;;;12.70;9.50;;;-3.20;99.90;;;;;;5051259;28;20469;-78
2023/01/25 06:00:10;;;;;;;17.60;11.23;;;-3.20;99.90;;;;;;5050793;28;20532;-78
2023/01/25 06:02:37;;;;;;;15.40;10.17;;;-3.10;99.90;;;;;;5049597;28;20548;-78
2023/01/25 06:05:05;;;;;;;17.00;10.00;;;-3.10;99.90;;;;;;5049178;28;21006;-78
2023/01/25 06:07:36;;;;;;;13.83;11.23;;;-3.00;99.90;;;;;;5048763;28;21224;-79
2023/01/25 06:10:03;;;;;;;12.80;10.57;;;-3.20;99.90;;;;;;5047688;28;20464;-76
2023/01/25 06:12:30;;;;;;;13.80;11.43;;;-3.50;99.90;;;;;;5048422;28;20544;-78
2023/01/25 06:14:57;;;;;;;11.23;9.90;;;-3.60;99.90;;;;;;5049010;28;20445;-78
2023/01/25 06:17:24;;;;;;;15.53;13.10;;;-3.40;99.90;;;;;;5048229;28;20540;-78
2023/01/25 06:19:51;;;;;;;17.53;12.50;;;-3.30;99.90;;;;;;5048794;28;20552;-78
2023/01/25 06:22:18;;;;;;;74.93;66.87;;;-3.10;99.90;;;;;;5036746;28;21036;-78
2023/01/25 06:24:46;;;;;;;18.07;16.13;;;-3.00;99.90;;;;;;5043331;28;20956;-78
2023/01/25 06:27:13;;;;;;;14.77;11.30;;;-2.90;99.90;;;;;;5048031;28;20531;-79
2023/01/25 06:29:40;;;;;;;17.43;11.13;;;-3.00;99.90;;;;;;5051859;28;20566;-79
2023/01/25 06:32:07;;;;;;;13.60;10.67;;;-2.80;99.90;;;;;;5051680;28;20545;-78
2023/01/25 06:34:34;;;;;;;13.70;11.20;;;-2.70;99.90;;;;;;5052100;28;20717;-79
2023/01/25 06:37:01;;;;;;;17.77;12.40;;;-3.00;99.90;;;;;;5052716;28;20529;-79
2023/01/25 06:39:28;;;;;;;13.80;12.30;;;-3.10;99.90;;;;;;5051213;28;20537;-79
2023/01/25 06:41:56;;;;;;;18.23;13.77;;;-3.00;99.90;;;;;;5052039;28;20876;-81
2023/01/25 06:44:23;;;;;;;12.97;11.67;;;-3.00;99.90;;;;;;5052119;28;21019;-78
2023/01/25 06:46:50;;;;;;;17.07;12.77;;;-2.80;99.90;;;;;;5052944;28;20531;-79
2023/01/25 06:49:17;;;;;;;12.77;10.30;;;-2.90;99.90;;;;;;5053134;28;20509;-79
2023/01/25 06:51:44;;;;;;;18.83;12.20;;;-2.80;99.90;;;;;;5052677;28;20547;-79
2023/01/25 06:54:11;;;;;;;17.03;12.87;;;-2.70;99.90;;;;;;5051123;28;20540;-79
2023/01/25 06:56:38;;;;;;;16.90;14.13;;;-2.60;99.90;;;;;;5042502;28;20884;-79
2023/01/25 06:59:06;;;;;;;19.70;16.07;;;-2.60;99.90;;;;;;5050886;28;20994;-79
2023/01/25 07:01:33;;;;;;;18.90;15.27;;;-2.60;99.90;;;;;;5052007;28;20552;-79
2023/01/25 07:04:00;;;;;;;16.93;13.07;;;-2.60;99.90;;;;;;5052365;28;20478;-79
2023/01/25 07:06:32;;;;;;;15.37;12.17;;;-2.60;99.90;;;;;;5050619;28;20508;-79
2023/01/25 07:09:03;;;;;;;19.17;12.70;;;-2.50;99.90;;;;;;5050352;28;20485;-79
2023/01/25 07:11:30;;;;;;;13.73;11.63;;;-2.60;99.90;;;;;;5049727;28;20466;-79
2023/01/25 07:13:57;;;;;;;12.17;10.50;;;-2.70;99.90;;;;;;5049988;28;20537;-79
2023/01/25 07:16:25;;;;;;;14.07;11.47;;;-2.50;99.90;;;;;;5049815;28;20531;-79
2023/01/25 07:18:52;;;;;;;16.00;12.57;;;-2.50;99.90;;;;;;5050424;28;20525;-79
2023/01/25 07:21:21;;;;;;;21.70;15.10;;;-2.40;99.90;;;;;;5050323;28;20549;-80
2023/01/25 07:23:48;;;;;;;17.37;15.23;;;-2.40;99.90;;;;;;5051353;28;20528;-79
2023/01/25 07:26:17;;;;;;;16.13;13.00;;;-2.50;99.90;;;;;;5051077;28;20484;-79
2023/01/25 07:28:44;;;;;;;15.43;12.57;;;-2.50;99.90;;;;;;5051610;28;20500;-79
2023/01/25 07:31:11;;;;;;;15.50;12.43;;;-2.50;99.90;;;;;;5051447;28;20548;-79
2023/01/25 07:33:39;;;;;;;18.67;13.67;;;-2.70;99.90;;;;;;5050293;28;20535;-79
2023/01/25 07:36:08;;;;;;;18.77;13.57;;;-2.70;99.90;;;;;;5051113;28;20485;-79
2023/01/25 07:38:36;;;;;;;16.67;14.03;;;-2.70;99.90;;;;;;5049628;28;20520;-79
2023/01/25 07:41:04;;;;;;;17.20;13.10;;;-2.50;99.90;;;;;;5049645;28;20448;-79
2023/01/25 07:43:31;;;;;;;17.53;13.90;;;-2.40;99.90;;;;;;5049315;28;20539;-79
2023/01/25 07:46:00;;;;;;;17.27;14.10;;;-2.30;99.90;;;;;;5049681;28;20989;-79
2023/01/25 07:48:27;;;;;;;19.40;14.17;;;-2.30;99.90;;;;;;5048943;28;20570;-79
2023/01/25 07:51:21;;;;;;;25.83;18.23;;;-2.20;99.90;;;;;;5049469;28;20523;-79
2023/01/25 07:53:49;;;;;;;20.20;14.53;;;-2.20;99.90;;;;;;5050711;28;20464;-79
2023/01/25 07:56:16;;;;;;;20.57;14.83;;;-2.20;99.90;;;;;;5050141;28;20559;-79
2023/01/25 07:58:42;;;;;;;18.73;16.60;;;-2.20;99.90;;;;;;5050887;28;20449;-80
2023/01/25 08:01:11;;;;;;;18.73;13.20;;;-2.20;99.90;;;;;;5051098;28;20457;-79
2023/01/25 08:03:38;;;;;;;21.03;13.30;;;-2.30;99.90;;;;;;5049849;28;20524;-79
2023/01/25 08:06:08;;;;;;;14.53;12.27;;;-2.60;99.90;;;;;;5050834;28;20477;-80
2023/01/25 08:08:37;;;;;;;17.27;13.00;;;-2.60;99.90;;;;;;5050260;28;21047;-79
2023/01/25 08:11:10;;;;;;;24.03;16.10;;;-2.50;99.90;;;;;;5050993;28;20525;-79
2023/01/25 08:13:37;;;;;;;17.93;14.37;;;-2.50;99.90;;;;;;5050141;28;20475;-79
2023/01/25 08:16:04;;;;;;;21.50;14.67;;;-2.60;99.90;;;;;;5051109;28;20535;-79
2023/01/25 08:18:31;;;;;;;20.30;16.53;;;-2.60;99.90;;;;;;5050958;28;20438;-79
2023/01/25 08:20:58;;;;;;;24.08;18.50;;;-2.50;99.90;;;;;;5049570;28;20547;-79
2023/01/25 08:23:28;;;;;;;19.83;17.33;;;-2.40;99.90;;;;;;5049810;28;20195;-79
2023/01/25 08:25:55;;;;;;;18.10;14.33;;;-2.40;99.90;;;;;;5050418;28;20819;-79
2023/01/25 08:28:22;;;;;;;13.80;8.63;;;-2.50;99.90;;;;;;5050519;28;20846;-79
2023/01/25 08:30:49;;;;;;;12.33;8.60;;;-2.50;99.90;;;;;;5050761;28;20474;-79
2023/01/25 08:33:16;;;;;;;14.40;7.97;;;-2.30;99.90;;;;;;5049240;28;20883;-79
2023/01/25 08:35:42;;;;;;;13.07;9.17;;;-2.20;99.90;;;;;;5050474;28;20518;-79
2023/01/25 08:38:09;;;;;;;13.80;8.47;;;-2.10;99.90;;;;;;5050579;28;20529;-79
2023/01/25 08:40:38;;;;;;;11.80;8.67;;;-1.90;99.90;;;;;;5049707;28;20537;-79
2023/01/25 08:43:04;;;;;;;11.97;8.77;;;-1.90;99.90;;;;;;5050059;28;20465;-79
2023/01/25 08:45:35;;;;;;;9.30;7.67;;;-1.90;99.90;;;;;;5034615;28;20541;-79
2023/01/25 08:48:02;;;;;;;13.13;9.87;;;-2.00;99.90;;;;;;5050014;28;20963;-79
2023/01/25 08:50:29;;;;;;;15.30;8.77;;;-2.00;99.90;;;;;;5049626;28;20532;-80
2023/01/25 08:52:56;;;;;;;12.60;8.73;;;-1.90;99.90;;;;;;5049959;28;21039;-79
2023/01/25 08:55:23;;;;;;;14.57;9.33;;;-1.90;99.90;;;;;;5049825;28;20880;-79
2023/01/25 08:57:51;;;;;;;12.23;9.27;;;-2.10;99.90;;;;;;5050854;28;20509;-79
2023/01/25 09:00:19;;;;;;;12.40;10.03;;;-2.10;99.90;;;;;;5050146;28;21037;-79
2023/01/25 09:02:46;;;;;;;12.83;9.20;;;-2.20;99.90;;;;;;5052287;28;20996;-79
2023/01/25 09:05:13;;;;;;;15.23;11.00;;;-2.10;99.90;;;;;;5054325;28;20487;-79
2023/01/25 09:07:40;;;;;;;14.10;10.30;;;-2.60;99.90;;;;;;5070090;22;20592;-49
2023/01/25 09:10:08;;;;;;;13.40;10.10;;;-2.80;99.90;;;;;;5052760;28;20560;-48
2023/01/25 09:12:35;;;;;;;14.40;10.47;;;-2.80;99.90;;;;;;5052852;28;20795;-49
2023/01/25 09:15:03;;;;;;;15.17;10.80;;;-2.90;99.90;;;;;;5052250;28;20546;-48
2023/01/25 09:17:31;;;;;;;12.47;10.23;;;-2.80;99.90;;;;;;5052311;28;20476;-47
2023/01/25 09:19:58;;;;;;;11.97;8.80;;;-2.70;99.90;;;;;;5053976;28;20529;-48
2023/01/25 09:22:25;;;;;;;12.63;10.63;;;-2.50;99.90;;;;;;5052327;28;20531;-48
2023/01/25 09:24:52;;;;;;;14.47;10.27;;;-2.30;99.90;;;;;;5051744;28;20907;-48
2023/01/25 09:27:20;;;;;;;15.47;11.20;;;-2.20;99.90;;;;;;5051874;28;20449;-49
2023/01/25 09:29:46;;;;;;;11.60;9.70;;;-2.10;99.90;;;;;;5052448;28;20477;-47
2023/01/25 09:32:15;;;;;;;17.20;11.60;;;-2.10;99.90;;;;;;5052251;28;20583;-51
2023/01/25 09:34:42;;;;;;;16.53;11.50;;;-2.30;99.90;;;;;;5051784;28;20553;-49
2023/01/25 09:37:09;;;;;;;13.53;8.73;;;-2.20;99.90;;;;;;5052937;28;20547;-48
2023/01/25 09:39:35;;;;;;;18.00;10.60;;;-2.30;99.90;;;;;;5051911;28;20532;-47
2023/01/25 09:42:35;;;;;;;12.73;9.90;;;-2.10;99.90;;;;;;5052468;28;20524;-48
2023/01/25 09:45:15;;;;;;;12.13;9.57;;;-2.20;99.90;;;;;;5051574;28;20555;-48
2023/01/25 09:47:48;;;;;;;13.70;8.77;;;-2.10;99.90;;;;;;5052133;28;20524;-48
2023/01/25 09:50:36;;;;;;;11.60;8.97;;;-2.00;99.90;;;;;;5051694;28;20720;-47
2023/01/25 09:53:25;;;;;;;13.90;10.10;;;-1.90;99.90;;;;;;5050449;28;20973;-49
2023/01/25 09:55:57;;;;;;;13.27;8.00;;;-1.80;99.90;;;;;;5050666;28;20529;-49
2023/01/25 09:58:29;;;;;;;14.98;10.57;;;-1.80;99.90;;;;;;5049749;28;21002;-48
2023/01/25 10:01:05;;;;;;;15.20;11.07;;;-1.80;99.90;;;;;;5050616;28;20286;-48
2023/01/25 10:03:42;;;;;;;14.70;10.27;;;-1.70;99.90;;;;;;5049208;28;21053;-49
2023/01/25 10:06:13;;;;;;;12.60;8.70;;;-1.60;99.90;;;;;;5050748;28;20531;-50
2023/01/25 10:08:49;;;;;;;15.27;10.50;;;-1.60;99.90;;;;;;5051730;28;20484;-50
2023/01/25 10:11:22;;;;;;;14.20;9.77;;;-1.70;99.90;;;;;;5047672;28;20524;-52
2023/01/25 10:13:49;;;;;;;14.53;10.63;;;-1.60;99.90;;;;;;5046871;28;20544;-50
2023/01/25 10:16:22;;;;;;;16.97;11.40;;;-1.70;99.90;;;;;;5050375;28;20528;-54
2023/01/25 10:18:59;;;;;;;12.57;9.50;;;-1.70;99.90;;;;;;5051553;28;20465;-51
2023/01/25 10:21:30;;;;;;;13.23;9.17;;;-1.60;99.90;;;;;;5050782;28;20524;-53
2023/01/25 10:24:26;;;;;;;14.17;10.20;;;-1.50;99.90;;;;;;5050264;28;20545;-51
2023/01/25 10:26:57;;;;;;;15.27;10.40;;;-1.50;99.90;;;;;;5028706;28;20528;-50
2023/01/25 10:29:27;;;;;;;12.63;9.50;;;-1.50;99.90;;;;;;5051087;28;20481;-50
2023/01/25 10:31:57;;;;;;;14.90;9.80;;;-1.50;99.90;;;;;;5050274;28;21014;-50
2023/01/25 10:34:30;;;;;;;16.23;11.60;;;-1.50;99.90;;;;;;5048281;28;20945;-49
2023/01/25 10:37:04;;;;;;;17.33;12.10;;;-1.50;99.90;;;;;;5051143;28;20286;-53
2023/01/25 10:39:34;;;;;;;16.37;10.63;;;-1.50;99.90;;;;;;5050684;28;20484;-50
2023/01/25 10:42:06;;;;;;;13.77;11.20;;;-1.40;99.90;;;;;;5050139;28;20481;-48
2023/01/25 10:44:36;;;;;;;17.88;12.98;;;-1.40;99.90;;;;;;5048943;28;20886;-49
2023/01/25 10:47:11;;;;;;;15.97;11.30;;;-1.40;99.90;;;;;;5051593;28;20289;-51
2023/01/25 10:49:43;;;;;;;12.43;11.00;;;-1.30;99.90;;;;;;5050781;28;21080;-50
2023/01/25 10:52:16;;;;;;;15.18;12.07;;;-1.40;99.90;;;;;;5050330;28;20518;-49
2023/01/25 10:54:43;;;;;;;30.23;19.63;;;-1.30;99.90;;;;;;5050035;28;20338;-48
2023/01/25 10:57:15;;;;;;;18.13;11.77;;;-1.20;99.90;;;;;;5050922;28;20532;-48
2023/01/25 10:59:45;;;;;;;13.00;9.97;;;-1.20;99.90;;;;;;5050895;28;20525;-50
2023/01/25 11:02:38;;;;;;;15.83;10.90;;;-1.20;99.90;;;;;;5050962;28;20537;-49
2023/01/25 11:05:25;;;;;;;13.53;10.23;;;-1.20;99.90;;;;;;5040702;28;20556;-50
2023/01/25 11:07:52;;;;;;;15.50;9.70;;;-1.20;99.90;;;;;;5039585;28;20556;-53
2023/01/25 11:10:29;;;;;;;14.90;10.33;;;-1.40;99.90;;;;;;5042176;28;21152;-50
2023/01/25 11:13:25;;;;;;;12.90;10.20;;;-1.40;99.90;;;;;;5040803;28;20507;-51
2023/01/25 11:15:54;;;;;;;14.10;9.00;;;-1.30;99.90;;;;;;5047740;28;20946;-53
2023/01/25 11:18:23;;;;;;;12.47;10.17;;;-1.20;99.90;;;;;;5042356;28;20534;-50
2023/01/25 11:21:05;;;;;;;13.30;8.87;;;-1.20;99.90;;;;;;5038434;28;20471;-51
2023/01/25 11:23:32;;;;;;;15.60;9.80;;;-1.10;99.90;;;;;;5037396;28;20472;-49
2023/01/25 11:26:12;;;;;;;15.57;10.77;;;-1.10;99.90;;;;;;5048547;28;21065;-51
2023/01/25 11:28:39;;;;;;;19.63;13.10;;;-1.30;99.90;;;;;;5040742;28;20536;-51
2023/01/25 11:31:11;;;;;;;14.33;10.67;;;-1.60;99.90;;;;;;5042303;28;20562;-50
2023/01/25 11:33:38;;;;;;;17.73;10.93;;;-1.60;99.90;;;;;;5033042;28;20768;-52
2023/01/25 11:36:22;;;;;;;17.03;11.20;;;-1.50;99.90;;;;;;5044966;28;20890;-51
2023/01/25 11:39:05;;;;;;;15.50;12.10;;;-1.30;99.90;;;;;;5041771;28;21230;-50
2023/01/25 11:41:42;;;;;;;16.23;10.70;;;-1.50;99.90;;;;;;5046139;28;20533;-52
2023/01/25 11:44:25;;;;;;;14.77;10.20;;;-1.40;99.90;;;;;;5047233;28;20465;-50
2023/01/25 11:47:01;;;;;;;14.07;9.57;;;-1.30;99.90;;;;;;5046238;28;20507;-51
2023/01/25 11:49:41;;;;;;;15.73;10.47;;;-1.10;99.90;;;;;;5048238;28;20509;-50
2023/01/25 11:52:22;;;;;;;15.87;10.60;;;-1.10;99.90;;;;;;5048897;28;20529;-51
2023/01/25 11:54:57;;;;;;;16.23;9.60;;;-1.10;99.90;;;;;;5048814;28;20553;-49
2023/01/25 11:57:46;;;;;;;12.73;10.10;;;-1.00;99.90;;;;;;5049380;28;20903;-50
2023/01/25 12:00:48;;;;;;;17.97;12.93;;;-1.00;99.90;;;;;;5049939;28;20857;-50
2023/01/25 12:03:42;;;;;;;14.87;10.07;;;-0.90;99.90;;;;;;4962396;28;20537;-50
2023/01/25 12:06:14;;;;;;;15.47;10.33;;;-0.90;99.90;;;;;;5044180;28;20525;-50
2023/01/25 12:09:09;;;;;;;18.10;13.87;;;-0.90;99.90;;;;;;5048589;28;20457;-51
2023/01/25 12:11:48;;;;;;;15.67;10.27;;;-0.90;99.90;;;;;;5046250;28;20454;-50
2023/01/25 12:14:26;;;;;;;14.80;10.30;;;-0.90;99.90;;;;;;5047237;28;21042;-49
2023/01/25 12:17:08;;;;;;;13.17;11.77;;;-1.30;99.90;;;;;;5046811;28;20473;-50
2023/01/25 12:20:00;;;;;;;15.63;10.50;;;-1.20;99.90;;;;;;5041987;28;20437;-49
2023/01/25 12:22:50;;;;;;;12.53;10.47;;;-1.00;99.90;;;;;;5034587;28;20521;-51
2023/01/25 12:25:29;;;;;;;16.10;10.60;;;-0.90;99.90;;;;;;5047287;28;20998;-50
2023/01/25 12:28:09;;;;;;;18.00;10.67;;;-1.00;99.90;;;;;;5048507;28;20469;-50
2023/01/25 12:30:45;;;;;;;13.10;9.50;;;-1.20;99.90;;;;;;5047789;28;20932;-49
2023/01/25 12:33:16;;;;;;;12.67;9.27;;;-1.00;99.90;;;;;;5047272;28;20484;-50
2023/01/25 12:35:49;;;;;;;12.63;9.33;;;-1.00;99.90;;;;;;5048865;28;20450;-51
2023/01/25 12:38:20;;;;;;;14.33;11.17;;;-1.00;99.90;;;;;;5051582;28;21218;-50
2023/01/25 12:40:54;;;;;;;14.90;11.50;;;-0.90;99.90;;;;;;5052830;28;20528;-50
2023/01/25 12:43:27;;;;;;;17.30;11.13;;;-0.90;99.90;;;;;;5052210;28;20461;-50
2023/01/25 12:45:55;;;;;;;18.90;11.30;;;-0.90;99.90;;;;;;5052742;28;21014;-51
2023/01/25 12:48:27;;;;;;;15.10;10.83;;;-0.80;99.90;;;;;;5052957;28;20541;-49
2023/01/25 12:50:56;;;;;;;16.03;12.87;;;-0.70;99.90;;;;;;5052977;28;20521;-51